sensor_id;sensor_type;location;lat;lon;timestamp;P1;durP1;ratioP1;P2;durP2;ratioP2
62509;SDS011;48558;48.242;11.654;2023-07-22T00:00:18;2.67;;;2.08;;
62509;SDS011;48558;48.242;11.654;2023-07-22T00:04:30;6.88;;;2.10;;
62509;SDS011;48558;48.242;11.654;2023-07-22T00:08:43;6.72;;;1.95;;
62509;SDS011;48558;48.242;11.654;2023-07-22T00:12:55;3.25;;;1.73;;
62509;SDS011;48558;48.242;11.654;2023-07-22T00:17:08;3.42;;;2.00;;
62509;SDS011;48558;48.242;11.654;2023-07-22T00:21:21;2.30;;;2.05;;
62509;SDS011;48558;48.242;11.654;2023-07-22T00:25:34;6.20;;;1.98;;
62509;SDS011;48558;48.242;11.654;2023-07-22T00:29:47;2.30;;;2.10;;
62509;SDS011;48558;48.242;11.654;2023-07-22T00:33:59;2.72;;;1.75;;
62509;SDS011;48558;48.242;11.654;2023-07-22T00:38:12;1.88;;;1.77;;
62509;SDS011;48558;48.242;11.654;2023-07-22T00:42:25;1.58;;;1.50;;
62509;SDS011;48558;48.242;11.654;2023-07-22T00:46:38;1.50;;;1.45;;
62509;SDS011;48558;48.242;11.654;2023-07-22T00:50:51;2.50;;;1.95;;
62509;SDS011;48558;48.242;11.654;2023-07-22T00:55:04;1.85;;;1.73;;
62509;SDS011;48558;48.242;11.654;2023-07-22T00:59:17;1.92;;;1.83;;
62509;SDS011;48558;48.242;11.654;2023-07-22T01:03:29;2.85;;;1.85;;
62509;SDS011;48558;48.242;11.654;2023-07-22T01:07:43;2.13;;;1.90;;
62509;SDS011;48558;48.242;11.654;2023-07-22T01:11:56;2.00;;;1.63;;
62509;SDS011;48558;48.242;11.654;2023-07-22T01:16:09;3.05;;;1.80;;
62509;SDS011;48558;48.242;11.654;2023-07-22T01:20:21;2.15;;;2.05;;
62509;SDS011;48558;48.242;11.654;2023-07-22T01:24:35;9.30;;;2.28;;
62509;SDS011;48558;48.242;11.654;2023-07-22T01:28:50;2.08;;;1.88;;
62509;SDS011;48558;48.242;11.654;2023-07-22T01:33:02;3.00;;;1.77;;
62509;SDS011;48558;48.242;11.654;2023-07-22T01:37:15;2.15;;;1.95;;
62509;SDS011;48558;48.242;11.654;2023-07-22T01:41:28;2.22;;;1.80;;
62509;SDS011;48558;48.242;11.654;2023-07-22T01:45:41;1.98;;;1.73;;
62509;SDS011;48558;48.242;11.654;2023-07-22T01:49:54;5.03;;;1.50;;
62509;SDS011;48558;48.242;11.654;2023-07-22T01:54:07;3.75;;;1.55;;
62509;SDS011;48558;48.242;11.654;2023-07-22T01:58:21;1.60;;;1.50;;
62509;SDS011;48558;48.242;11.654;2023-07-22T02:02:33;1.60;;;1.50;;
62509;SDS011;48558;48.242;11.654;2023-07-22T02:06:47;1.95;;;1.80;;
62509;SDS011;48558;48.242;11.654;2023-07-22T02:11:03;3.83;;;2.25;;
62509;SDS011;48558;48.242;11.654;2023-07-22T02:15:18;3.27;;;2.33;;
62509;SDS011;48558;48.242;11.654;2023-07-22T02:19:31;2.53;;;2.10;;
62509;SDS011;48558;48.242;11.654;2023-07-22T02:23:44;4.72;;;2.30;;
62509;SDS011;48558;48.242;11.654;2023-07-22T02:27:56;2.40;;;2.20;;
62509;SDS011;48558;48.242;11.654;2023-07-22T02:32:09;3.83;;;2.72;;
62509;SDS011;48558;48.242;11.654;2023-07-22T02:36:21;2.00;;;1.90;;
62509;SDS011;48558;48.242;11.654;2023-07-22T02:40:35;2.50;;;2.30;;
62509;SDS011;48558;48.242;11.654;2023-07-22T02:44:48;4.18;;;2.35;;
62509;SDS011;48558;48.242;11.654;2023-07-22T02:49:01;3.15;;;2.30;;
62509;SDS011;48558;48.242;11.654;2023-07-22T02:53:13;2.92;;;2.15;;
62509;SDS011;48558;48.242;11.654;2023-07-22T02:57:26;2.40;;;2.20;;
62509;SDS011;48558;48.242;11.654;2023-07-22T03:01:40;4.65;;;2.90;;
62509;SDS011;48558;48.242;11.654;2023-07-22T03:05:53;3.13;;;2.60;;
62509;SDS011;48558;48.242;11.654;2023-07-22T03:10:06;3.03;;;2.42;;
62509;SDS011;48558;48.242;11.654;2023-07-22T03:14:20;5.28;;;2.42;;
62509;SDS011;48558;48.242;11.654;2023-07-22T03:18:34;5.60;;;2.80;;
62509;SDS011;48558;48.242;11.654;2023-07-22T03:22:46;2.67;;;2.47;;
62509;SDS011;48558;48.242;11.654;2023-07-22T03:26:59;2.47;;;2.28;;
62509;SDS011;48558;48.242;11.654;2023-07-22T03:31:11;3.38;;;2.38;;
62509;SDS011;48558;48.242;11.654;2023-07-22T03:35:24;2.15;;;2.05;;
62509;SDS011;48558;48.242;11.654;2023-07-22T03:39:36;2.55;;;2.35;;
62509;SDS011;48558;48.242;11.654;2023-07-22T03:43:49;3.30;;;2.78;;
62509;SDS011;48558;48.242;11.654;2023-07-22T03:48:01;2.95;;;2.65;;
62509;SDS011;48558;48.242;11.654;2023-07-22T03:52:14;2.63;;;2.50;;
62509;SDS011;48558;48.242;11.654;2023-07-22T03:56:30;2.55;;;2.35;;
62509;SDS011;48558;48.242;11.654;2023-07-22T04:00:42;3.03;;;2.63;;
62509;SDS011;48558;48.242;11.654;2023-07-22T04:04:55;2.50;;;2.38;;
62509;SDS011;48558;48.242;11.654;2023-07-22T04:09:07;3.63;;;2.60;;
62509;SDS011;48558;48.242;11.654;2023-07-22T04:13:20;2.90;;;2.67;;
62509;SDS011;48558;48.242;11.654;2023-07-22T04:17:34;3.97;;;2.40;;
62509;SDS011;48558;48.242;11.654;2023-07-22T04:21:47;2.67;;;2.47;;
62509;SDS011;48558;48.242;11.654;2023-07-22T04:26:01;2.65;;;2.45;;
62509;SDS011;48558;48.242;11.654;2023-07-22T04:34:32;2.33;;;2.22;;
62509;SDS011;48558;48.242;11.654;2023-07-22T04:38:45;4.75;;;2.55;;
62509;SDS011;48558;48.242;11.654;2023-07-22T04:42:57;2.83;;;2.63;;
62509;SDS011;48558;48.242;11.654;2023-07-22T04:47:10;2.90;;;2.70;;
62509;SDS011;48558;48.242;11.654;2023-07-22T04:51:22;6.68;;;3.63;;
62509;SDS011;48558;48.242;11.654;2023-07-22T04:55:35;4.90;;;3.85;;
62509;SDS011;48558;48.242;11.654;2023-07-22T04:59:49;4.00;;;3.70;;
62509;SDS011;48558;48.242;11.654;2023-07-22T05:04:01;4.25;;;3.85;;
62509;SDS011;48558;48.242;11.654;2023-07-22T05:08:14;5.95;;;3.55;;
62509;SDS011;48558;48.242;11.654;2023-07-22T05:12:26;4.57;;;3.88;;
62509;SDS011;48558;48.242;11.654;2023-07-22T05:16:39;5.22;;;4.28;;
62509;SDS011;48558;48.242;11.654;2023-07-22T05:20:52;4.30;;;3.72;;
62509;SDS011;48558;48.242;11.654;2023-07-22T05:25:05;5.40;;;3.65;;
62509;SDS011;48558;48.242;11.654;2023-07-22T05:29:18;3.35;;;3.05;;
62509;SDS011;48558;48.242;11.654;2023-07-22T05:33:31;3.22;;;2.92;;
62509;SDS011;48558;48.242;11.654;2023-07-22T05:37:44;3.88;;;3.22;;
62509;SDS011;48558;48.242;11.654;2023-07-22T05:41:56;4.70;;;3.10;;
62509;SDS011;48558;48.242;11.654;2023-07-22T05:46:09;3.33;;;3.03;;
62509;SDS011;48558;48.242;11.654;2023-07-22T05:50:21;3.30;;;3.00;;
62509;SDS011;48558;48.242;11.654;2023-07-22T05:54:34;2.80;;;2.60;;
62509;SDS011;48558;48.242;11.654;2023-07-22T05:58:46;5.38;;;3.10;;
62509;SDS011;48558;48.242;11.654;2023-07-22T06:02:59;3.47;;;2.50;;
62509;SDS011;48558;48.242;11.654;2023-07-22T06:07:11;2.63;;;2.42;;
62509;SDS011;48558;48.242;11.654;2023-07-22T06:11:24;3.95;;;2.45;;
62509;SDS011;48558;48.242;11.654;2023-07-22T06:15:37;2.83;;;2.50;;
62509;SDS011;48558;48.242;11.654;2023-07-22T06:19:50;2.33;;;2.13;;
62509;SDS011;48558;48.242;11.654;2023-07-22T06:24:04;1.98;;;1.88;;
62509;SDS011;48558;48.242;11.654;2023-07-22T06:28:18;2.20;;;2.05;;
62509;SDS011;48558;48.242;11.654;2023-07-22T06:32:30;6.72;;;2.00;;
62509;SDS011;48558;48.242;11.654;2023-07-22T06:36:43;3.97;;;1.65;;
62509;SDS011;48558;48.242;11.654;2023-07-22T06:40:55;3.78;;;2.15;;
62509;SDS011;48558;48.242;11.654;2023-07-22T06:45:09;2.05;;;1.90;;
62509;SDS011;48558;48.242;11.654;2023-07-22T06:49:22;1.83;;;1.73;;
62509;SDS011;48558;48.242;11.654;2023-07-22T06:53:34;2.42;;;1.85;;
62509;SDS011;48558;48.242;11.654;2023-07-22T06:57:48;2.35;;;1.88;;
62509;SDS011;48558;48.242;11.654;2023-07-22T07:02:00;2.30;;;1.85;;
62509;SDS011;48558;48.242;11.654;2023-07-22T07:06:13;2.00;;;1.90;;
62509;SDS011;48558;48.242;11.654;2023-07-22T07:10:26;1.88;;;1.60;;
62509;SDS011;48558;48.242;11.654;2023-07-22T07:14:38;2.13;;;1.65;;
62509;SDS011;48558;48.242;11.654;2023-07-22T07:18:51;3.50;;;1.80;;
62509;SDS011;48558;48.242;11.654;2023-07-22T07:23:04;2.72;;;1.90;;
62509;SDS011;48558;48.242;11.654;2023-07-22T07:27:17;1.70;;;1.50;;
62509;SDS011;48558;48.242;11.654;2023-07-22T07:31:29;4.13;;;1.75;;
62509;SDS011;48558;48.242;11.654;2023-07-22T07:35:46;1.80;;;1.70;;
62509;SDS011;48558;48.242;11.654;2023-07-22T07:39:59;1.70;;;1.60;;
62509;SDS011;48558;48.242;11.654;2023-07-22T07:44:12;1.70;;;1.60;;
62509;SDS011;48558;48.242;11.654;2023-07-22T07:48:24;2.78;;;1.77;;
62509;SDS011;48558;48.242;11.654;2023-07-22T07:52:37;1.58;;;1.48;;
62509;SDS011;48558;48.242;11.654;2023-07-22T07:56:50;2.22;;;1.50;;
62509;SDS011;48558;48.242;11.654;2023-07-22T08:01:03;2.03;;;1.55;;
62509;SDS011;48558;48.242;11.654;2023-07-22T08:05:16;1.30;;;1.30;;
62509;SDS011;48558;48.242;11.654;2023-07-22T08:09:29;1.20;;;1.20;;
62509;SDS011;48558;48.242;11.654;2023-07-22T08:13:43;1.40;;;1.30;;
62509;SDS011;48558;48.242;11.654;2023-07-22T08:17:56;2.78;;;1.60;;
62509;SDS011;48558;48.242;11.654;2023-07-22T08:22:09;4.10;;;1.70;;
62509;SDS011;48558;48.242;11.654;2023-07-22T08:26:23;1.73;;;1.63;;
62509;SDS011;48558;48.242;11.654;2023-07-22T08:30:36;2.05;;;1.50;;
62509;SDS011;48558;48.242;11.654;2023-07-22T08:34:49;3.97;;;1.58;;
62509;SDS011;48558;48.242;11.654;2023-07-22T08:39:01;2.70;;;1.30;;
62509;SDS011;48558;48.242;11.654;2023-07-22T08:43:14;2.05;;;1.60;;
62509;SDS011;48558;48.242;11.654;2023-07-22T08:47:28;2.72;;;1.70;;
62509;SDS011;48558;48.242;11.654;2023-07-22T08:51:42;1.35;;;1.30;;
62509;SDS011;48558;48.242;11.654;2023-07-22T08:55:56;2.88;;;1.65;;
62509;SDS011;48558;48.242;11.654;2023-07-22T09:00:09;2.75;;;1.50;;
62509;SDS011;48558;48.242;11.654;2023-07-22T09:04:23;1.52;;;1.42;;
62509;SDS011;48558;48.242;11.654;2023-07-22T09:08:42;1.70;;;1.60;;
62509;SDS011;48558;48.242;11.654;2023-07-22T09:12:54;3.40;;;1.50;;
62509;SDS011;48558;48.242;11.654;2023-07-22T09:17:08;1.17;;;1.17;;
62509;SDS011;48558;48.242;11.654;2023-07-22T09:21:21;1.70;;;1.60;;
62509;SDS011;48558;48.242;11.654;2023-07-22T09:25:33;3.38;;;1.67;;
62509;SDS011;48558;48.242;11.654;2023-07-22T09:29:46;2.15;;;1.50;;
62509;SDS011;48558;48.242;11.654;2023-07-22T09:34:10;1.58;;;1.30;;
62509;SDS011;48558;48.242;11.654;2023-07-22T09:38:23;3.45;;;1.42;;
62509;SDS011;48558;48.242;11.654;2023-07-22T09:42:37;1.30;;;1.20;;
62509;SDS011;48558;48.242;11.654;2023-07-22T09:46:50;3.70;;;1.58;;
62509;SDS011;48558;48.242;11.654;2023-07-22T09:51:03;4.60;;;1.52;;
62509;SDS011;48558;48.242;11.654;2023-07-22T09:55:16;1.60;;;1.20;;
62509;SDS011;48558;48.242;11.654;2023-07-22T09:59:31;1.42;;;1.33;;
62509;SDS011;48558;48.242;11.654;2023-07-22T10:03:45;2.45;;;1.48;;
62509;SDS011;48558;48.242;11.654;2023-07-22T10:07:59;1.10;;;1.10;;
62509;SDS011;48558;48.242;11.654;2023-07-22T10:12:14;1.65;;;1.55;;
62509;SDS011;48558;48.242;11.654;2023-07-22T10:16:27;1.63;;;1.52;;
62509;SDS011;48558;48.242;11.654;2023-07-22T10:20:41;2.15;;;1.45;;
62509;SDS011;48558;48.242;11.654;2023-07-22T10:24:54;1.67;;;1.55;;
62509;SDS011;48558;48.242;11.654;2023-07-22T10:29:08;1.63;;;1.08;;
62509;SDS011;48558;48.242;11.654;2023-07-22T10:33:21;1.42;;;1.17;;
62509;SDS011;48558;48.242;11.654;2023-07-22T10:37:34;1.73;;;1.50;;
62509;SDS011;48558;48.242;11.654;2023-07-22T10:41:46;2.13;;;1.33;;
62509;SDS011;48558;48.242;11.654;2023-07-22T10:46:05;2.03;;;1.30;;
62509;SDS011;48558;48.242;11.654;2023-07-22T10:50:23;1.48;;;1.38;;
62509;SDS011;48558;48.242;11.654;2023-07-22T10:55:01;2.42;;;1.25;;
62509;SDS011;48558;48.242;11.654;2023-07-22T10:59:13;1.70;;;1.10;;
62509;SDS011;48558;48.242;11.654;2023-07-22T11:03:26;1.92;;;1.40;;
62509;SDS011;48558;48.242;11.654;2023-07-22T11:07:43;1.65;;;1.30;;
62509;SDS011;48558;48.242;11.654;2023-07-22T11:12:04;2.50;;;1.40;;
62509;SDS011;48558;48.242;11.654;2023-07-22T11:16:18;1.30;;;1.20;;
62509;SDS011;48558;48.242;11.654;2023-07-22T11:20:32;1.45;;;1.25;;
62509;SDS011;48558;48.242;11.654;2023-07-22T11:24:46;1.50;;;1.40;;
62509;SDS011;48558;48.242;11.654;2023-07-22T11:29:02;1.50;;;1.40;;
62509;SDS011;48558;48.242;11.654;2023-07-22T11:33:16;2.33;;;1.40;;
62509;SDS011;48558;48.242;11.654;2023-07-22T11:37:29;2.97;;;1.30;;
62509;SDS011;48558;48.242;11.654;2023-07-22T11:41:41;1.50;;;1.40;;
62509;SDS011;48558;48.242;11.654;2023-07-22T11:45:55;1.33;;;1.27;;
62509;SDS011;48558;48.242;11.654;2023-07-22T11:50:08;8.15;;;1.40;;
62509;SDS011;48558;48.242;11.654;2023-07-22T11:54:21;4.78;;;1.60;;
62509;SDS011;48558;48.242;11.654;2023-07-22T11:58:34;2.08;;;1.30;;
62509;SDS011;48558;48.242;11.654;2023-07-22T12:02:47;2.55;;;1.35;;
62509;SDS011;48558;48.242;11.654;2023-07-22T12:07:00;3.92;;;1.38;;
62509;SDS011;48558;48.242;11.654;2023-07-22T12:11:17;2.42;;;1.45;;
62509;SDS011;48558;48.242;11.654;2023-07-22T12:15:37;3.30;;;1.92;;
62509;SDS011;48558;48.242;11.654;2023-07-22T12:19:52;1.42;;;1.33;;
62509;SDS011;48558;48.242;11.654;2023-07-22T12:24:08;1.50;;;1.40;;
62509;SDS011;48558;48.242;11.654;2023-07-22T12:28:26;3.73;;;1.33;;
62509;SDS011;48558;48.242;11.654;2023-07-22T12:32:38;8.48;;;1.92;;
62509;SDS011;48558;48.242;11.654;2023-07-22T12:36:51;1.25;;;1.25;;
62509;SDS011;48558;48.242;11.654;2023-07-22T12:41:03;1.30;;;1.20;;
62509;SDS011;48558;48.242;11.654;2023-07-22T12:45:16;1.38;;;1.27;;
62509;SDS011;48558;48.242;11.654;2023-07-22T12:49:28;6.68;;;1.50;;
62509;SDS011;48558;48.242;11.654;2023-07-22T12:53:41;1.73;;;1.35;;
62509;SDS011;48558;48.242;11.654;2023-07-22T12:57:54;2.20;;;1.40;;
62509;SDS011;48558;48.242;11.654;2023-07-22T13:02:07;2.30;;;1.40;;
62509;SDS011;48558;48.242;11.654;2023-07-22T13:06:19;1.50;;;1.40;;
62509;SDS011;48558;48.242;11.654;2023-07-22T13:10:32;1.65;;;1.55;;
62509;SDS011;48558;48.242;11.654;2023-07-22T13:14:47;1.58;;;1.48;;
62509;SDS011;48558;48.242;11.654;2023-07-22T13:18:59;1.70;;;1.60;;
62509;SDS011;48558;48.242;11.654;2023-07-22T13:23:15;1.40;;;1.30;;
62509;SDS011;48558;48.242;11.654;2023-07-22T13:27:27;1.50;;;1.40;;
62509;SDS011;48558;48.242;11.654;2023-07-22T13:31:40;2.42;;;1.38;;
62509;SDS011;48558;48.242;11.654;2023-07-22T13:35:52;1.38;;;1.27;;
62509;SDS011;48558;48.242;11.654;2023-07-22T13:40:05;1.45;;;1.35;;
62509;SDS011;48558;48.242;11.654;2023-07-22T13:44:22;2.55;;;1.38;;
62509;SDS011;48558;48.242;11.654;2023-07-22T13:48:35;1.95;;;1.40;;
62509;SDS011;48558;48.242;11.654;2023-07-22T13:52:48;1.73;;;1.63;;
62509;SDS011;48558;48.242;11.654;2023-07-22T13:57:01;1.60;;;1.50;;
62509;SDS011;48558;48.242;11.654;2023-07-22T14:01:14;1.85;;;1.63;;
62509;SDS011;48558;48.242;11.654;2023-07-22T14:05:26;1.63;;;1.52;;
62509;SDS011;48558;48.242;11.654;2023-07-22T14:09:39;2.35;;;1.70;;
62509;SDS011;48558;48.242;11.654;2023-07-22T14:13:51;2.53;;;1.65;;
62509;SDS011;48558;48.242;11.654;2023-07-22T14:22:20;4.63;;;1.67;;
62509;SDS011;48558;48.242;11.654;2023-07-22T14:26:33;1.80;;;1.70;;
62509;SDS011;48558;48.242;11.654;2023-07-22T14:30:45;2.67;;;2.47;;
62509;SDS011;48558;48.242;11.654;2023-07-22T14:34:59;2.03;;;1.92;;
62509;SDS011;48558;48.242;11.654;2023-07-22T14:39:11;2.20;;;2.00;;
62509;SDS011;48558;48.242;11.654;2023-07-22T14:43:24;2.88;;;2.10;;
62509;SDS011;48558;48.242;11.654;2023-07-22T14:47:37;1.35;;;1.35;;
62509;SDS011;48558;48.242;11.654;2023-07-22T14:51:49;2.70;;;2.30;;
62509;SDS011;48558;48.242;11.654;2023-07-22T14:56:02;1.90;;;1.70;;
62509;SDS011;48558;48.242;11.654;2023-07-22T15:00:15;3.28;;;1.92;;
62509;SDS011;48558;48.242;11.654;2023-07-22T15:04:29;1.90;;;1.80;;
62509;SDS011;48558;48.242;11.654;2023-07-22T15:08:41;2.67;;;2.20;;
62509;SDS011;48558;48.242;11.654;2023-07-22T15:12:54;2.33;;;2.13;;
62509;SDS011;48558;48.242;11.654;2023-07-22T15:17:07;5.13;;;2.38;;
62509;SDS011;48558;48.242;11.654;2023-07-22T15:21:20;2.28;;;2.08;;
62509;SDS011;48558;48.242;11.654;2023-07-22T15:25:32;4.43;;;1.90;;
62509;SDS011;48558;48.242;11.654;2023-07-22T15:29:45;2.53;;;2.00;;
62509;SDS011;48558;48.242;11.654;2023-07-22T15:33:58;2.38;;;2.17;;
62509;SDS011;48558;48.242;11.654;2023-07-22T15:38:10;2.63;;;2.03;;
62509;SDS011;48558;48.242;11.654;2023-07-22T15:42:23;2.35;;;2.15;;
62509;SDS011;48558;48.242;11.654;2023-07-22T15:46:35;3.17;;;2.00;;
62509;SDS011;48558;48.242;11.654;2023-07-22T15:50:48;2.50;;;2.30;;
62509;SDS011;48558;48.242;11.654;2023-07-22T15:55:00;3.40;;;2.30;;
62509;SDS011;48558;48.242;11.654;2023-07-22T15:59:13;2.15;;;1.95;;
62509;SDS011;48558;48.242;11.654;2023-07-22T16:03:27;2.30;;;2.10;;
62509;SDS011;48558;48.242;11.654;2023-07-22T16:07:39;2.60;;;2.40;;
62509;SDS011;48558;48.242;11.654;2023-07-22T16:11:52;2.45;;;2.20;;
62509;SDS011;48558;48.242;11.654;2023-07-22T16:16:05;2.40;;;2.20;;
62509;SDS011;48558;48.242;11.654;2023-07-22T16:20:18;2.35;;;2.15;;
62509;SDS011;48558;48.242;11.654;2023-07-22T16:24:32;5.70;;;2.30;;
62509;SDS011;48558;48.242;11.654;2023-07-22T16:28:45;2.35;;;2.15;;
62509;SDS011;48558;48.242;11.654;2023-07-22T16:32:59;2.53;;;2.20;;
62509;SDS011;48558;48.242;11.654;2023-07-22T16:37:12;2.17;;;2.03;;
62509;SDS011;48558;48.242;11.654;2023-07-22T16:41:24;3.35;;;2.40;;
62509;SDS011;48558;48.242;11.654;2023-07-22T16:45:37;2.63;;;2.38;;
62509;SDS011;48558;48.242;11.654;2023-07-22T16:49:51;3.58;;;2.40;;
62509;SDS011;48558;48.242;11.654;2023-07-22T16:54:04;2.63;;;2.42;;
62509;SDS011;48558;48.242;11.654;2023-07-22T16:58:16;2.33;;;2.10;;
62509;SDS011;48558;48.242;11.654;2023-07-22T17:02:29;2.80;;;2.60;;
62509;SDS011;48558;48.242;11.654;2023-07-22T17:06:42;2.80;;;1.90;;
62509;SDS011;48558;48.242;11.654;2023-07-22T17:10:55;2.47;;;2.28;;
62509;SDS011;48558;48.242;11.654;2023-07-22T17:15:07;2.60;;;2.40;;
62509;SDS011;48558;48.242;11.654;2023-07-22T17:19:21;4.07;;;2.92;;
62509;SDS011;48558;48.242;11.654;2023-07-22T17:23:33;3.53;;;2.83;;
62509;SDS011;48558;48.242;11.654;2023-07-22T17:27:46;2.90;;;2.38;;
62509;SDS011;48558;48.242;11.654;2023-07-22T17:32:00;2.60;;;2.40;;
62509;SDS011;48558;48.242;11.654;2023-07-22T17:36:13;4.65;;;4.05;;
62509;SDS011;48558;48.242;11.654;2023-07-22T17:40:27;2.78;;;1.95;;
62509;SDS011;48558;48.242;11.654;2023-07-22T17:44:40;2.53;;;2.33;;
62509;SDS011;48558;48.242;11.654;2023-07-22T17:48:53;2.90;;;2.40;;
62509;SDS011;48558;48.242;11.654;2023-07-22T17:53:06;3.08;;;2.78;;
62509;SDS011;48558;48.242;11.654;2023-07-22T17:57:20;6.28;;;2.65;;
62509;SDS011;48558;48.242;11.654;2023-07-22T18:01:32;4.45;;;2.30;;
62509;SDS011;48558;48.242;11.654;2023-07-22T18:05:45;7.47;;;2.60;;
62509;SDS011;48558;48.242;11.654;2023-07-22T18:10:00;2.90;;;2.60;;
62509;SDS011;48558;48.242;11.654;2023-07-22T18:14:13;5.63;;;2.58;;
62509;SDS011;48558;48.242;11.654;2023-07-22T18:18:25;4.22;;;2.50;;
62509;SDS011;48558;48.242;11.654;2023-07-22T18:22:38;6.00;;;2.50;;
62509;SDS011;48558;48.242;11.654;2023-07-22T18:26:50;3.75;;;2.28;;
62509;SDS011;48558;48.242;11.654;2023-07-22T18:31:03;2.67;;;2.25;;
62509;SDS011;48558;48.242;11.654;2023-07-22T18:35:16;3.88;;;2.38;;
62509;SDS011;48558;48.242;11.654;2023-07-22T18:39:28;5.13;;;2.67;;
62509;SDS011;48558;48.242;11.654;2023-07-22T18:43:41;7.28;;;2.55;;
62509;SDS011;48558;48.242;11.654;2023-07-22T18:47:53;3.00;;;2.40;;
62509;SDS011;48558;48.242;11.654;2023-07-22T18:52:06;2.78;;;2.45;;
62509;SDS011;48558;48.242;11.654;2023-07-22T18:56:19;2.53;;;2.22;;
62509;SDS011;48558;48.242;11.654;2023-07-22T19:00:32;2.60;;;2.40;;
62509;SDS011;48558;48.242;11.654;2023-07-22T19:04:45;3.60;;;2.10;;
62509;SDS011;48558;48.242;11.654;2023-07-22T19:08:57;2.20;;;2.10;;
62509;SDS011;48558;48.242;11.654;2023-07-22T19:13:10;6.45;;;3.20;;
62509;SDS011;48558;48.242;11.654;2023-07-22T19:17:23;10.50;;;3.17;;
62509;SDS011;48558;48.242;11.654;2023-07-22T19:21:37;2.60;;;2.40;;
62509;SDS011;48558;48.242;11.654;2023-07-22T19:25:50;2.60;;;2.40;;
62509;SDS011;48558;48.242;11.654;2023-07-22T19:30:02;6.70;;;2.60;;
62509;SDS011;48558;48.242;11.654;2023-07-22T19:34:15;2.90;;;2.60;;
62509;SDS011;48558;48.242;11.654;2023-07-22T19:38:28;4.10;;;2.38;;
62509;SDS011;48558;48.242;11.654;2023-07-22T19:42:41;2.72;;;2.25;;
62509;SDS011;48558;48.242;11.654;2023-07-22T19:46:54;2.67;;;2.47;;
62509;SDS011;48558;48.242;11.654;2023-07-22T19:51:08;3.08;;;2.60;;
62509;SDS011;48558;48.242;11.654;2023-07-22T19:55:22;3.88;;;2.42;;
62509;SDS011;48558;48.242;11.654;2023-07-22T19:59:34;2.47;;;2.28;;
62509;SDS011;48558;48.242;11.654;2023-07-22T20:03:49;4.00;;;2.40;;
62509;SDS011;48558;48.242;11.654;2023-07-22T20:08:03;3.20;;;2.25;;
62509;SDS011;48558;48.242;11.654;2023-07-22T20:12:16;2.95;;;2.38;;
62509;SDS011;48558;48.242;11.654;2023-07-22T20:16:29;4.82;;;2.58;;
62509;SDS011;48558;48.242;11.654;2023-07-22T20:20:41;2.55;;;2.28;;
62509;SDS011;48558;48.242;11.654;2023-07-22T20:24:54;2.80;;;2.60;;
62509;SDS011;48558;48.242;11.654;2023-07-22T20:29:07;6.55;;;2.65;;
62509;SDS011;48558;48.242;11.654;2023-07-22T20:33:19;5.75;;;2.72;;
62509;SDS011;48558;48.242;11.654;2023-07-22T20:37:32;3.78;;;2.70;;
62509;SDS011;48558;48.242;11.654;2023-07-22T20:41:44;5.53;;;2.70;;
62509;SDS011;48558;48.242;11.654;2023-07-22T20:46:00;5.22;;;2.75;;
62509;SDS011;48558;48.242;11.654;2023-07-22T20:50:15;3.85;;;3.00;;
62509;SDS011;48558;48.242;11.654;2023-07-22T20:54:28;3.92;;;3.10;;
62509;SDS011;48558;48.242;11.654;2023-07-22T20:58:41;7.60;;;2.70;;
62509;SDS011;48558;48.242;11.654;2023-07-22T21:02:53;3.10;;;2.78;;
62509;SDS011;48558;48.242;11.654;2023-07-22T21:07:06;3.15;;;2.85;;
62509;SDS011;48558;48.242;11.654;2023-07-22T21:11:18;4.70;;;2.78;;
62509;SDS011;48558;48.242;11.654;2023-07-22T21:15:31;3.05;;;2.78;;
62509;SDS011;48558;48.242;11.654;2023-07-22T21:19:44;3.75;;;3.20;;
62509;SDS011;48558;48.242;11.654;2023-07-22T21:23:56;3.88;;;3.20;;
62509;SDS011;48558;48.242;11.654;2023-07-22T21:28:09;5.80;;;3.03;;
62509;SDS011;48558;48.242;11.654;2023-07-22T21:32:24;7.82;;;2.75;;
62509;SDS011;48558;48.242;11.654;2023-07-22T21:36:36;3.38;;;3.03;;
62509;SDS011;48558;48.242;11.654;2023-07-22T21:40:50;3.00;;;2.67;;
62509;SDS011;48558;48.242;11.654;2023-07-22T21:45:04;3.28;;;2.95;;
62509;SDS011;48558;48.242;11.654;2023-07-22T21:49:18;7.10;;;3.05;;
62509;SDS011;48558;48.242;11.654;2023-07-22T21:53:30;4.18;;;3.05;;
62509;SDS011;48558;48.242;11.654;2023-07-22T21:57:43;5.53;;;3.28;;
62509;SDS011;48558;48.242;11.654;2023-07-22T22:01:57;4.13;;;3.20;;
62509;SDS011;48558;48.242;11.654;2023-07-22T22:06:10;5.65;;;3.33;;
62509;SDS011;48558;48.242;11.654;2023-07-22T22:10:22;8.40;;;3.42;;
62509;SDS011;48558;48.242;11.654;2023-07-22T22:14:35;3.92;;;3.03;;
62509;SDS011;48558;48.242;11.654;2023-07-22T22:18:48;5.82;;;3.20;;
62509;SDS011;48558;48.242;11.654;2023-07-22T22:23:00;4.15;;;3.10;;
62509;SDS011;48558;48.242;11.654;2023-07-22T22:27:15;5.50;;;3.13;;
62509;SDS011;48558;48.242;11.654;2023-07-22T22:31:28;3.47;;;3.17;;
62509;SDS011;48558;48.242;11.654;2023-07-22T22:35:41;5.93;;;3.28;;
62509;SDS011;48558;48.242;11.654;2023-07-22T22:39:54;3.88;;;3.08;;
62509;SDS011;48558;48.242;11.654;2023-07-22T22:44:06;5.13;;;3.03;;
62509;SDS011;48558;48.242;11.654;2023-07-22T22:48:18;8.65;;;3.50;;
62509;SDS011;48558;48.242;11.654;2023-07-22T22:52:31;7.63;;;3.72;;
62509;SDS011;48558;48.242;11.654;2023-07-22T22:56:46;3.67;;;3.30;;
62509;SDS011;48558;48.242;11.654;2023-07-22T23:00:58;6.10;;;3.30;;
62509;SDS011;48558;48.242;11.654;2023-07-22T23:05:20;4.30;;;3.33;;
62509;SDS011;48558;48.242;11.654;2023-07-22T23:09:32;4.38;;;3.15;;
62509;SDS011;48558;48.242;11.654;2023-07-22T23:13:45;5.03;;;3.38;;
62509;SDS011;48558;48.242;11.654;2023-07-22T23:17:59;3.45;;;3.15;;
62509;SDS011;48558;48.242;11.654;2023-07-22T23:22:12;8.18;;;3.30;;
62509;SDS011;48558;48.242;11.654;2023-07-22T23:26:24;3.92;;;3.50;;
62509;SDS011;48558;48.242;11.654;2023-07-22T23:30:37;5.03;;;3.10;;
62509;SDS011;48558;48.242;11.654;2023-07-22T23:34:50;6.47;;;3.03;;
62509;SDS011;48558;48.242;11.654;2023-07-22T23:39:03;4.90;;;4.05;;
62509;SDS011;48558;48.242;11.654;2023-07-22T23:43:18;3.58;;;3.10;;
62509;SDS011;48558;48.242;11.654;2023-07-22T23:47:33;4.85;;;3.35;;
62509;SDS011;48558;48.242;11.654;2023-07-22T23:51:45;6.65;;;3.20;;
62509;SDS011;48558;48.242;11.654;2023-07-22T23:55:58;2.97;;;2.78;;
